createdAt,value
2023-04-27T00:01:12.916Z,55.30
2023-04-27T00:03:42.402Z,55.40
2023-04-27T00:06:11.261Z,55.40
2023-04-27T00:08:39.815Z,55.40
2023-04-27T00:11:09.260Z,55.50
2023-04-27T00:13:37.851Z,55.60
2023-04-27T00:16:06.312Z,55.60
2023-04-27T00:18:34.893Z,55.60
2023-04-27T00:21:02.982Z,55.60
2023-04-27T00:23:31.525Z,55.50
2023-04-27T00:25:59.583Z,55.50
2023-04-27T00:28:29.496Z,55.50
2023-04-27T00:30:58.021Z,55.60
2023-04-27T00:33:26.401Z,55.70
2023-04-27T00:35:54.936Z,55.70
2023-04-27T00:38:22.993Z,55.80
2023-04-27T00:40:51.585Z,56.60
2023-04-27T00:43:19.672Z,56.00
2023-04-27T00:45:49.295Z,56.00
2023-04-27T00:48:18.055Z,56.20
2023-04-27T00:50:46.138Z,56.10
2023-04-27T00:53:14.994Z,56.30
2023-04-27T00:55:43.012Z,56.40
2023-04-27T00:58:12.351Z,56.50
2023-04-27T01:00:41.042Z,56.50
2023-04-27T01:03:11.948Z,56.50
2023-04-27T01:05:41.104Z,56.60
2023-04-27T01:08:10.187Z,56.60
2023-04-27T01:10:39.097Z,56.50
2023-04-27T01:13:07.149Z,56.60
2023-04-27T01:15:36.019Z,56.80
2023-04-27T01:18:05.222Z,56.80
2023-04-27T01:20:36.392Z,56.80
2023-04-27T01:23:04.529Z,56.90
2023-04-27T01:25:34.436Z,56.90
2023-04-27T01:28:02.799Z,57.00
2023-04-27T01:30:31.374Z,56.90
2023-04-27T01:32:59.476Z,56.90
2023-04-27T01:35:28.449Z,57.10
2023-04-27T01:37:58.260Z,57.20
2023-04-27T01:40:26.805Z,57.40
2023-04-27T01:42:56.287Z,57.30
2023-04-27T01:45:24.982Z,57.40
2023-04-27T01:47:53.948Z,57.40
2023-04-27T01:50:22.372Z,57.60
2023-04-27T01:52:50.840Z,57.70
2023-04-27T01:55:19.041Z,57.70
2023-04-27T01:57:47.698Z,57.90
2023-04-27T02:00:17.831Z,57.90
2023-04-27T02:02:46.524Z,58.30
2023-04-27T02:05:14.660Z,58.40
2023-04-27T02:07:42.751Z,58.40
2023-04-27T02:10:11.645Z,58.40
2023-04-27T02:12:40.185Z,58.60
2023-04-27T02:15:09.679Z,58.50
2023-04-27T02:17:40.102Z,58.50
2023-04-27T02:20:10.497Z,58.50
2023-04-27T02:22:38.723Z,58.50
2023-04-27T02:25:07.787Z,58.50
2023-04-27T02:27:39.023Z,58.60
2023-04-27T02:30:10.474Z,58.80
2023-04-27T02:32:41.698Z,58.70
2023-04-27T02:35:11.053Z,58.70
2023-04-27T02:37:39.603Z,58.70
2023-04-27T02:40:09.487Z,58.60
2023-04-27T02:42:39.331Z,58.80
2023-04-27T02:45:09.653Z,58.80
2023-04-27T02:47:39.627Z,58.80
2023-04-27T02:50:08.711Z,58.90
2023-04-27T02:52:36.943Z,58.90
2023-04-27T02:55:06.072Z,59.00
2023-04-27T02:57:34.659Z,59.10
2023-04-27T03:00:03.894Z,59.10
2023-04-27T03:02:32.599Z,59.20
2023-04-27T03:05:02.140Z,59.20
2023-04-27T03:07:32.124Z,59.30
2023-04-27T03:10:00.656Z,59.30
2023-04-27T03:12:29.179Z,59.50
2023-04-27T03:14:58.015Z,59.60
2023-04-27T03:17:26.586Z,59.60
2023-04-27T03:19:55.166Z,59.80
2023-04-27T03:22:25.063Z,59.80
2023-04-27T03:24:53.116Z,59.90
2023-04-27T03:27:21.215Z,60.00
2023-04-27T03:29:52.845Z,60.10
2023-04-27T03:32:21.200Z,60.30
2023-04-27T03:34:49.763Z,60.40
2023-04-27T03:37:17.847Z,60.50
2023-04-27T03:39:47.747Z,60.70
2023-04-27T03:42:16.294Z,60.90
2023-04-27T03:44:45.067Z,61.00
2023-04-27T03:47:13.588Z,61.10
2023-04-27T03:49:42.152Z,61.10
2023-04-27T03:52:10.209Z,61.20
2023-04-27T03:54:38.749Z,61.20
2023-04-27T03:57:08.181Z,61.30
2023-04-27T03:59:36.748Z,61.70
2023-04-27T04:02:05.786Z,61.70
2023-04-27T04:04:34.116Z,61.80
2023-04-27T04:07:03.510Z,61.80
2023-04-27T04:09:32.094Z,61.70
2023-04-27T04:12:00.162Z,61.80
2023-04-27T04:14:30.891Z,61.80
2023-04-27T04:16:59.161Z,62.00
2023-04-27T04:19:27.216Z,62.00
2023-04-27T04:21:57.780Z,62.20
2023-04-27T04:24:25.834Z,62.20
2023-04-27T04:26:54.381Z,62.30
2023-04-27T04:29:23.114Z,62.50
2023-04-27T04:31:52.922Z,62.40
2023-04-27T04:34:21.855Z,62.50
2023-04-27T04:36:51.733Z,62.40
2023-04-27T04:39:21.346Z,62.70
2023-04-27T04:41:50.711Z,62.70
2023-04-27T04:44:19.464Z,62.90
2023-04-27T04:46:47.656Z,63.00
2023-04-27T04:49:17.110Z,63.10
2023-04-27T04:51:46.336Z,63.30
2023-04-27T04:54:14.899Z,63.40
2023-04-27T04:56:42.959Z,63.50
2023-04-27T04:59:11.088Z,63.60
2023-04-27T05:01:39.317Z,63.50
2023-04-27T05:04:07.955Z,63.60
2023-04-27T05:06:37.563Z,63.70
2023-04-27T05:09:06.600Z,63.70
2023-04-27T05:11:34.680Z,63.80
2023-04-27T05:14:03.194Z,63.80
2023-04-27T05:16:32.059Z,64.00
2023-04-27T05:19:00.167Z,64.20
2023-04-27T05:21:28.263Z,64.20
2023-04-27T05:23:58.186Z,64.30
2023-04-27T05:26:26.254Z,64.50
2023-04-27T05:28:54.776Z,64.60
2023-04-27T05:31:22.896Z,64.80
2023-04-27T05:33:50.932Z,64.90
2023-04-27T05:36:19.461Z,65.10
2023-04-27T05:38:47.607Z,65.10
2023-04-27T05:41:17.526Z,65.30
2023-04-27T05:43:46.032Z,65.60
2023-04-27T05:46:16.081Z,65.70
2023-04-27T05:48:44.684Z,65.90
2023-04-27T05:51:12.739Z,65.80
2023-04-27T05:53:41.611Z,65.80
2023-04-27T05:56:12.291Z,65.90
2023-04-27T05:58:42.177Z,65.90
2023-04-27T06:01:10.683Z,65.80
2023-04-27T06:03:39.300Z,65.90
2023-04-27T06:06:07.883Z,65.80
2023-04-27T06:08:37.918Z,65.80
2023-04-27T06:11:07.021Z,65.90
2023-04-27T06:13:35.677Z,65.80
2023-04-27T06:16:06.140Z,65.70
2023-04-27T06:18:34.274Z,65.60
2023-04-27T06:21:03.084Z,65.80
2023-04-27T06:23:31.368Z,66.00
2023-04-27T06:25:59.859Z,66.10
2023-04-27T06:28:28.397Z,66.10
2023-04-27T06:30:56.938Z,65.90
2023-04-27T06:33:26.742Z,66.00
2023-04-27T06:35:54.826Z,66.20
2023-04-27T06:38:23.024Z,66.00
2023-04-27T06:40:53.225Z,66.10
2023-04-27T06:43:22.225Z,67.00
2023-04-27T06:45:50.382Z,66.00
2023-04-27T06:48:19.283Z,66.00
2023-04-27T06:50:49.368Z,66.00
2023-04-27T06:53:18.501Z,65.80
2023-04-27T06:55:48.425Z,65.40
2023-04-27T06:58:16.871Z,64.80
2023-04-27T07:00:45.010Z,64.30
2023-04-27T07:03:13.723Z,65.00
2023-04-27T07:05:42.018Z,63.80
2023-04-27T07:08:12.263Z,63.60
2023-04-27T07:10:41.095Z,63.30
2023-04-27T07:13:09.602Z,63.00
2023-04-27T07:15:38.176Z,62.80
2023-04-27T07:18:06.890Z,62.50
2023-04-27T07:20:35.118Z,62.10
2023-04-27T07:23:04.503Z,62.10
2023-04-27T07:25:34.197Z,61.70
2023-04-27T07:28:02.720Z,61.60
2023-04-27T07:30:31.060Z,61.50
2023-04-27T07:33:01.322Z,61.40
2023-04-27T07:35:29.520Z,61.20
2023-04-27T07:37:57.970Z,61.00
2023-04-27T07:40:26.970Z,60.90
2023-04-27T07:42:57.241Z,60.90
2023-04-27T07:45:31.854Z,60.70
2023-04-27T07:48:00.799Z,60.60
2023-04-27T07:50:30.283Z,60.30
2023-04-27T07:52:59.476Z,59.80
2023-04-27T07:55:28.684Z,59.70
2023-04-27T07:57:58.833Z,59.70
2023-04-27T08:00:27.659Z,59.60
2023-04-27T08:02:56.637Z,59.60
2023-04-27T08:05:25.413Z,59.60
2023-04-27T08:07:54.468Z,59.50
2023-04-27T08:10:23.889Z,59.50
2023-04-27T08:12:52.124Z,59.60
2023-04-27T08:15:21.591Z,59.60
2023-04-27T08:17:50.279Z,59.60
2023-04-27T08:20:18.482Z,59.50
2023-04-27T08:22:47.047Z,59.50
2023-04-27T08:25:15.112Z,59.50
2023-04-27T08:27:43.319Z,59.40
2023-04-27T08:30:12.710Z,59.00
2023-04-27T08:32:42.380Z,59.10
2023-04-27T08:35:12.030Z,58.60
2023-04-27T08:37:40.172Z,58.60
2023-04-27T08:40:10.448Z,58.60
2023-04-27T08:42:38.610Z,58.60
2023-04-27T08:45:09.956Z,59.20
2023-04-27T08:47:43.405Z,59.20
2023-04-27T08:50:14.311Z,58.40
2023-04-27T08:52:44.778Z,58.20
2023-04-27T08:55:15.683Z,58.20
2023-04-27T08:57:56.204Z,58.20
2023-04-27T09:00:27.148Z,58.10
2023-04-27T09:02:55.897Z,58.10
2023-04-27T09:05:25.621Z,58.10
2023-04-27T09:08:06.037Z,58.00
2023-04-27T09:10:45.581Z,57.80
2023-04-27T09:13:14.353Z,57.50
2023-04-27T09:15:48.536Z,57.50
2023-04-27T09:18:18.926Z,57.40
2023-04-27T09:20:49.751Z,57.50
2023-04-27T09:23:29.059Z,57.50
2023-04-27T09:25:58.635Z,57.40
2023-04-27T09:28:29.121Z,57.50
2023-04-27T09:30:58.941Z,57.40
2023-04-27T09:33:28.101Z,57.40
2023-04-27T09:35:58.899Z,57.30
2023-04-27T09:38:27.662Z,57.20
2023-04-27T09:40:57.159Z,57.10
2023-04-27T09:43:27.349Z,57.00
2023-04-27T09:45:56.333Z,56.90
2023-04-27T09:48:25.269Z,56.90
2023-04-27T09:50:54.681Z,56.80
2023-04-27T09:53:27.545Z,56.60
2023-04-27T09:56:09.021Z,56.10
2023-04-27T09:59:08.282Z,56.00
2023-04-27T10:01:42.301Z,55.90
2023-04-27T10:04:37.673Z,55.90
2023-04-27T10:07:09.439Z,55.40
2023-04-27T10:09:42.323Z,55.40
2023-04-27T10:12:19.383Z,55.40
2023-04-27T10:14:52.404Z,54.80
2023-04-27T10:17:26.038Z,55.10
2023-04-27T10:19:57.935Z,55.10
2023-04-27T10:22:39.751Z,55.20
2023-04-27T10:25:28.753Z,55.00
2023-04-27T10:28:00.071Z,54.80
2023-04-27T10:30:32.528Z,54.90
2023-04-27T10:33:06.419Z,54.80
2023-04-27T10:35:35.935Z,54.90
2023-04-27T10:38:09.390Z,54.80
2023-04-27T10:40:39.872Z,54.50
2023-04-27T10:43:12.284Z,54.40
2023-04-27T10:45:40.903Z,54.10
2023-04-27T10:48:09.829Z,54.20
2023-04-27T10:50:37.945Z,54.10
2023-04-27T10:53:07.359Z,54.00
2023-04-27T10:55:36.380Z,53.80
2023-04-27T10:58:06.596Z,53.60
2023-04-27T11:00:37.129Z,53.20
2023-04-27T11:03:15.011Z,53.80
2023-04-27T11:05:43.678Z,52.80
2023-04-27T11:08:14.088Z,53.00
2023-04-27T11:10:45.818Z,53.20
2023-04-27T11:13:17.979Z,53.10
2023-04-27T11:15:48.490Z,53.00
2023-04-27T11:18:17.250Z,53.00
2023-04-27T11:20:46.584Z,53.00
2023-04-27T11:23:25.701Z,52.90
2023-04-27T11:25:54.414Z,52.60
2023-04-27T11:28:25.168Z,52.80
2023-04-27T11:30:59.784Z,52.80
2023-04-27T11:33:29.105Z,52.70
2023-04-27T11:35:58.023Z,52.70
2023-04-27T11:38:27.114Z,52.90
2023-04-27T11:41:03.195Z,52.90
2023-04-27T11:43:33.272Z,52.70
2023-04-27T11:46:04.131Z,52.80
2023-04-27T11:48:33.659Z,52.50
2023-04-27T11:51:01.766Z,52.50
2023-04-27T11:53:34.331Z,52.30
2023-04-27T11:56:05.716Z,52.00
2023-04-27T11:58:36.752Z,52.10
2023-04-27T12:01:05.572Z,52.10
2023-04-27T12:03:34.905Z,52.30
2023-04-27T12:06:21.592Z,52.30
2023-04-27T12:08:52.107Z,52.30
2023-04-27T12:11:21.298Z,52.30
2023-04-27T12:13:51.037Z,52.90
2023-04-27T12:16:19.707Z,52.10
2023-04-27T12:18:47.776Z,52.10
2023-04-27T12:21:16.404Z,51.90
2023-04-27T12:23:45.257Z,52.10
2023-04-27T12:26:15.520Z,52.00
2023-04-27T12:28:44.233Z,51.80
2023-04-27T12:31:17.077Z,51.80
2023-04-27T12:33:45.900Z,51.50
2023-04-27T12:36:14.428Z,51.50
2023-04-27T12:38:42.459Z,50.80
2023-04-27T12:41:11.301Z,50.70
2023-04-27T12:43:41.628Z,50.70
2023-04-27T12:46:09.971Z,50.50
2023-04-27T12:48:40.016Z,50.00
2023-04-27T12:51:08.619Z,50.00
2023-04-27T12:53:37.196Z,49.80
2023-04-27T12:56:05.916Z,49.80
2023-04-27T12:58:34.057Z,49.90
2023-04-27T13:01:02.726Z,49.90
2023-04-27T13:03:30.896Z,49.90
2023-04-27T13:06:00.923Z,49.70
2023-04-27T13:08:29.267Z,49.70
2023-04-27T13:10:57.817Z,49.80
2023-04-27T13:13:26.321Z,49.80
2023-04-27T13:15:54.928Z,49.80
2023-04-27T13:18:23.556Z,49.40
2023-04-27T13:20:51.747Z,49.00
2023-04-27T13:23:21.724Z,48.60
2023-04-27T13:25:49.789Z,48.60
2023-04-27T13:28:18.314Z,48.70
2023-04-27T13:30:46.866Z,48.70
2023-04-27T13:33:22.470Z,48.90
2023-04-27T13:35:52.482Z,48.90
2023-04-27T13:38:21.978Z,48.60
2023-04-27T13:40:50.613Z,48.80
2023-04-27T13:43:18.683Z,48.80
2023-04-27T13:45:47.226Z,48.60
2023-04-27T13:48:15.739Z,48.20
2023-04-27T13:50:43.785Z,47.00
2023-04-27T13:53:12.574Z,46.80
2023-04-27T13:55:42.077Z,46.10
2023-04-27T13:58:11.300Z,46.00
2023-04-27T14:00:39.719Z,46.00
2023-04-27T14:03:09.493Z,46.30
2023-04-27T14:05:38.131Z,46.50
2023-04-27T14:08:06.668Z,46.90
2023-04-27T14:10:35.211Z,46.80
2023-04-27T14:13:04.722Z,46.80
2023-04-27T14:15:37.424Z,46.50
2023-04-27T14:18:07.684Z,46.10
2023-04-27T14:20:36.829Z,45.80
2023-04-27T14:23:06.209Z,45.40
2023-04-27T14:25:35.257Z,44.70
2023-04-27T14:28:07.199Z,44.80
2023-04-27T14:30:36.363Z,44.90
2023-04-27T14:33:05.040Z,44.50
2023-04-27T14:35:35.603Z,44.70
2023-04-27T14:38:04.751Z,45.00
2023-04-27T14:40:33.481Z,45.40
2023-04-27T14:43:01.551Z,45.50
2023-04-27T14:45:43.590Z,45.40
2023-04-27T14:48:18.753Z,44.80
2023-04-27T14:50:47.010Z,45.40
2023-04-27T14:53:15.097Z,45.90
2023-04-27T14:55:45.700Z,45.90
2023-04-27T14:58:14.550Z,45.90
2023-04-27T15:00:44.092Z,45.80
2023-04-27T15:03:12.394Z,45.00
2023-04-27T15:05:41.150Z,45.10
2023-04-27T15:08:09.282Z,45.30
2023-04-27T15:10:37.824Z,45.00
2023-04-27T15:13:06.342Z,45.30
2023-04-27T15:15:34.456Z,45.60
2023-04-27T15:18:04.530Z,46.00
2023-04-27T15:20:32.749Z,46.30
2023-04-27T15:23:00.925Z,46.60
2023-04-27T15:25:29.085Z,46.50
2023-04-27T15:27:57.164Z,45.80
2023-04-27T15:30:25.901Z,45.90
2023-04-27T15:32:55.283Z,45.10
2023-04-27T15:35:24.800Z,45.00
2023-04-27T15:37:53.756Z,44.10
2023-04-27T15:40:21.997Z,44.00
2023-04-27T15:42:50.624Z,43.30
2023-04-27T15:45:19.410Z,43.50
2023-04-27T15:47:48.091Z,43.30
2023-04-27T15:50:17.962Z,43.50
2023-04-27T15:52:47.940Z,43.70
2023-04-27T15:55:17.066Z,43.60
2023-04-27T15:57:45.137Z,43.60
2023-04-27T16:00:16.449Z,43.50
2023-04-27T16:02:45.237Z,43.60
2023-04-27T16:05:13.385Z,44.00
2023-04-27T16:07:43.566Z,44.40
2023-04-27T16:10:13.461Z,44.30
2023-04-27T16:12:41.665Z,44.20
2023-04-27T16:15:11.788Z,44.40
2023-04-27T16:17:40.173Z,44.40
2023-04-27T16:20:10.227Z,43.60
2023-04-27T16:22:38.917Z,44.50
2023-04-27T16:25:11.153Z,43.80
2023-04-27T16:27:40.760Z,43.70
2023-04-27T16:30:10.168Z,43.60
2023-04-27T16:32:38.686Z,42.90
2023-04-27T16:35:07.768Z,43.20
2023-04-27T16:37:36.313Z,43.30
2023-04-27T16:40:06.980Z,43.10
2023-04-27T16:42:35.690Z,43.30
2023-04-27T16:45:07.168Z,42.90
2023-04-27T16:47:36.731Z,42.80
2023-04-27T16:50:05.304Z,43.10
2023-04-27T16:52:33.408Z,43.60
2023-04-27T16:55:01.519Z,43.90
2023-04-27T16:57:29.604Z,44.10
2023-04-27T16:59:58.186Z,44.40
2023-04-27T17:02:27.868Z,44.40
2023-04-27T17:04:56.709Z,44.50
2023-04-27T17:07:25.518Z,44.80
2023-04-27T17:09:54.382Z,44.90
2023-04-27T17:12:22.438Z,44.60
2023-04-27T17:14:50.993Z,44.80
2023-04-27T17:17:19.585Z,45.00
2023-04-27T17:19:49.024Z,45.20
2023-04-27T17:22:17.323Z,45.40
2023-04-27T17:24:45.479Z,45.30
2023-04-27T17:27:14.001Z,45.40
2023-04-27T17:29:42.529Z,45.60
2023-04-27T17:32:10.598Z,45.70
2023-04-27T17:34:40.416Z,45.80
2023-04-27T17:37:11.928Z,45.90
2023-04-27T17:39:40.499Z,46.00
2023-04-27T17:42:12.231Z,46.10
2023-04-27T17:44:42.593Z,46.10
2023-04-27T17:47:11.482Z,45.80
2023-04-27T17:49:40.040Z,45.80
2023-04-27T17:52:08.551Z,45.80
2023-04-27T17:54:38.054Z,45.90
2023-04-27T17:57:06.146Z,45.90
2023-04-27T17:59:34.250Z,45.70
2023-04-27T18:02:03.454Z,46.10
2023-04-27T18:04:31.742Z,46.10
2023-04-27T18:06:59.905Z,46.00
2023-04-27T18:09:29.453Z,45.90
2023-04-27T18:12:00.460Z,45.80
2023-04-27T18:14:28.751Z,45.70
2023-04-27T18:16:56.983Z,45.60
2023-04-27T18:19:25.160Z,45.70
2023-04-27T18:21:53.701Z,45.60
2023-04-27T18:24:22.282Z,45.60
2023-04-27T18:26:50.396Z,45.70
2023-04-27T18:29:19.851Z,45.80
2023-04-27T18:31:47.966Z,45.90
2023-04-27T18:34:16.062Z,46.10
2023-04-27T18:36:45.801Z,46.20
2023-04-27T18:39:14.104Z,46.30
2023-04-27T18:41:42.320Z,46.50
2023-04-27T18:44:10.956Z,46.70
2023-04-27T18:46:40.416Z,46.70
2023-04-27T18:49:08.485Z,46.80
2023-04-27T18:51:36.508Z,46.80
2023-04-27T18:56:33.382Z,47.20
2023-04-27T18:59:01.514Z,47.20
2023-04-27T19:01:31.471Z,47.30
2023-04-27T19:04:01.194Z,47.30
2023-04-27T19:06:29.469Z,47.40
2023-04-27T19:08:58.238Z,47.40
2023-04-27T19:11:26.620Z,47.50
2023-04-27T19:13:55.144Z,47.60
2023-04-27T19:16:25.061Z,47.80
2023-04-27T19:18:53.639Z,48.00
2023-04-27T19:21:23.096Z,48.00
2023-04-27T19:23:51.698Z,48.10
2023-04-27T19:26:19.754Z,48.10
2023-04-27T19:28:48.370Z,48.10
2023-04-27T19:31:16.474Z,48.10
2023-04-27T19:33:47.381Z,48.30
2023-04-27T19:36:25.236Z,48.40
2023-04-27T19:38:53.306Z,48.50
2023-04-27T19:41:22.484Z,48.60
2023-04-27T19:43:51.038Z,48.70
2023-04-27T19:46:19.651Z,48.80
2023-04-27T19:48:47.758Z,48.90
2023-04-27T19:51:16.315Z,49.00
2023-04-27T19:53:45.861Z,49.10
2023-04-27T19:56:13.987Z,49.20
2023-04-27T19:58:42.245Z,49.20
2023-04-27T20:01:12.963Z,49.20
2023-04-27T20:03:41.698Z,49.20
2023-04-27T20:06:11.146Z,49.40
2023-04-27T20:08:39.912Z,49.40
2023-04-27T20:11:09.922Z,49.40
2023-04-27T20:13:38.008Z,49.50
2023-04-27T20:16:07.087Z,49.50
2023-04-27T20:18:35.171Z,49.60
2023-04-27T20:21:03.765Z,49.60
2023-04-27T20:23:31.818Z,49.70
2023-04-27T20:25:59.885Z,49.70
2023-04-27T20:28:30.484Z,49.80
2023-04-27T20:30:59.146Z,49.90
2023-04-27T20:33:27.842Z,50.00
2023-04-27T20:36:03.498Z,50.00
2023-04-27T20:38:38.379Z,50.00
2023-04-27T20:41:06.578Z,50.10
2023-04-27T20:43:39.159Z,50.10
2023-04-27T20:46:08.302Z,50.20
2023-04-27T20:48:36.679Z,50.30
2023-04-27T20:51:05.096Z,50.30
2023-04-27T20:53:33.214Z,50.40
2023-04-27T20:56:01.331Z,50.40
2023-04-27T20:58:30.137Z,50.40
2023-04-27T21:01:00.151Z,50.40
2023-04-27T21:03:29.355Z,50.50
2023-04-27T21:05:58.042Z,50.50
2023-04-27T21:08:26.627Z,50.60
2023-04-27T21:10:54.728Z,50.70
2023-04-27T21:13:22.784Z,50.70
2023-04-27T21:15:50.978Z,50.80
2023-04-27T21:18:29.664Z,50.80
2023-04-27T21:20:58.874Z,51.00
2023-04-27T21:23:27.112Z,51.10
2023-04-27T21:25:55.169Z,51.10
2023-04-27T21:28:23.308Z,51.20
2023-04-27T21:30:51.607Z,51.20
2023-04-27T21:33:21.324Z,51.30
2023-04-27T21:35:49.398Z,51.50
2023-04-27T21:38:18.321Z,51.50
2023-04-27T21:40:46.454Z,51.60
2023-04-27T21:43:15.045Z,51.60
2023-04-27T21:45:43.918Z,51.70
2023-04-27T21:48:11.956Z,51.70
2023-04-27T21:50:41.422Z,51.70
2023-04-27T21:53:09.620Z,51.90
2023-04-27T21:55:38.254Z,51.90
2023-04-27T21:58:06.319Z,52.00
2023-04-27T22:00:34.918Z,52.00
2023-04-27T22:03:04.279Z,52.10
2023-04-27T22:05:33.457Z,52.20
2023-04-27T22:08:03.916Z,52.20
2023-04-27T22:10:31.949Z,52.40
2023-04-27T22:13:05.209Z,52.50
2023-04-27T22:15:43.586Z,52.60
2023-04-27T22:18:12.213Z,52.80
2023-04-27T22:20:40.405Z,53.10
2023-04-27T22:23:10.311Z,53.20
2023-04-27T22:25:39.004Z,53.40
2023-04-27T22:28:07.068Z,54.20
2023-04-27T22:30:36.401Z,53.60
2023-04-27T22:33:05.149Z,53.80
2023-04-27T22:35:34.451Z,53.90
2023-04-27T22:38:02.495Z,54.00
2023-04-27T22:40:32.452Z,54.00
2023-04-27T22:43:00.949Z,54.10
2023-04-27T22:45:29.534Z,54.10
2023-04-27T22:47:59.093Z,54.10
2023-04-27T22:50:27.621Z,54.00
2023-04-27T22:52:56.141Z,54.10
2023-04-27T22:55:24.282Z,54.10
2023-04-27T22:57:53.998Z,54.20
2023-04-27T23:00:22.726Z,54.30
2023-04-27T23:02:50.866Z,54.40
2023-04-27T23:05:19.512Z,54.50
2023-04-27T23:07:48.231Z,54.50
2023-04-27T23:10:18.860Z,54.50
2023-04-27T23:12:47.847Z,54.50
2023-04-27T23:15:17.471Z,54.60
2023-04-27T23:17:46.102Z,54.70
2023-04-27T23:20:27.460Z,54.70
2023-04-27T23:22:57.532Z,54.80
2023-04-27T23:25:25.688Z,54.70
2023-04-27T23:27:54.609Z,54.80
2023-04-27T23:30:24.214Z,54.90
2023-04-27T23:32:52.456Z,55.00
2023-04-27T23:35:20.935Z,55.10
2023-04-27T23:37:49.066Z,55.10
2023-04-27T23:40:17.885Z,55.20
2023-04-27T23:42:45.937Z,55.80
2023-04-27T23:45:14.527Z,55.40
2023-04-27T23:47:44.040Z,55.40
2023-04-27T23:50:12.761Z,55.40
2023-04-27T23:52:42.284Z,55.40
2023-04-27T23:55:11.239Z,56.10
2023-04-27T23:57:39.747Z,55.60
